sensor_id;sensor_type;location;lat;lon;timestamp;P1;durP1;ratioP1;P2;durP2;ratioP2
70052;SDS011;57398;52.032;4.376;2024-02-04T00:00:36;1.30;;;0.70;;
70052;SDS011;57398;52.032;4.376;2024-02-04T00:03:26;1.25;;;0.70;;
70052;SDS011;57398;52.032;4.376;2024-02-04T00:06:14;1.30;;;0.80;;
70052;SDS011;57398;52.032;4.376;2024-02-04T00:09:02;1.38;;;0.80;;
70052;SDS011;57398;52.032;4.376;2024-02-04T00:11:51;1.30;;;0.80;;
70052;SDS011;57398;52.032;4.376;2024-02-04T00:14:39;1.40;;;0.80;;
70052;SDS011;57398;52.032;4.376;2024-02-04T00:17:27;1.23;;;0.70;;
70052;SDS011;57398;52.032;4.376;2024-02-04T00:20:19;1.40;;;0.90;;
70052;SDS011;57398;52.032;4.376;2024-02-04T00:23:07;1.40;;;0.90;;
70052;SDS011;57398;52.032;4.376;2024-02-04T00:25:56;1.27;;;0.70;;
70052;SDS011;57398;52.032;4.376;2024-02-04T00:28:44;1.10;;;0.57;;
70052;SDS011;57398;52.032;4.376;2024-02-04T00:31:32;1.25;;;0.73;;
70052;SDS011;57398;52.032;4.376;2024-02-04T00:34:20;1.50;;;1.00;;
70052;SDS011;57398;52.032;4.376;2024-02-04T00:37:10;1.17;;;0.60;;
70052;SDS011;57398;52.032;4.376;2024-02-04T00:39:58;1.40;;;0.80;;
70052;SDS011;57398;52.032;4.376;2024-02-04T00:42:46;1.30;;;0.80;;
70052;SDS011;57398;52.032;4.376;2024-02-04T00:45:34;1.30;;;0.73;;
70052;SDS011;57398;52.032;4.376;2024-02-04T00:48:22;1.30;;;0.70;;
70052;SDS011;57398;52.032;4.376;2024-02-04T00:51:11;1.30;;;0.80;;
70052;SDS011;57398;52.032;4.376;2024-02-04T00:54:01;1.20;;;0.70;;
70052;SDS011;57398;52.032;4.376;2024-02-04T00:56:49;1.20;;;0.60;;
70052;SDS011;57398;52.032;4.376;2024-02-04T00:59:37;1.30;;;0.80;;
70052;SDS011;57398;52.032;4.376;2024-02-04T01:02:25;1.30;;;0.80;;
70052;SDS011;57398;52.032;4.376;2024-02-04T01:05:13;1.25;;;0.70;;
70052;SDS011;57398;52.032;4.376;2024-02-04T01:08:01;1.40;;;0.80;;
70052;SDS011;57398;52.032;4.376;2024-02-04T01:10:51;1.20;;;0.70;;
70052;SDS011;57398;52.032;4.376;2024-02-04T01:13:39;1.30;;;0.70;;
70052;SDS011;57398;52.032;4.376;2024-02-04T01:16:27;1.38;;;0.80;;
70052;SDS011;57398;52.032;4.376;2024-02-04T01:19:16;1.20;;;0.60;;
70052;SDS011;57398;52.032;4.376;2024-02-04T01:22:04;1.23;;;0.70;;
70052;SDS011;57398;52.032;4.376;2024-02-04T01:24:52;1.40;;;0.93;;
70052;SDS011;57398;52.032;4.376;2024-02-04T01:27:42;1.40;;;0.85;;
70052;SDS011;57398;52.032;4.376;2024-02-04T01:30:30;1.10;;;0.55;;
70052;SDS011;57398;52.032;4.376;2024-02-04T01:33:18;1.10;;;0.50;;
70052;SDS011;57398;52.032;4.376;2024-02-04T01:36:07;1.13;;;0.60;;
70052;SDS011;57398;52.032;4.376;2024-02-04T01:38:55;1.30;;;0.77;;
70052;SDS011;57398;52.032;4.376;2024-02-04T01:41:44;1.23;;;0.70;;
70052;SDS011;57398;52.032;4.376;2024-02-04T01:44:34;1.20;;;0.68;;
70052;SDS011;57398;52.032;4.376;2024-02-04T01:47:22;1.38;;;0.88;;
70052;SDS011;57398;52.032;4.376;2024-02-04T01:50:10;1.23;;;0.70;;
70052;SDS011;57398;52.032;4.376;2024-02-04T01:52:58;1.40;;;0.90;;
70052;SDS011;57398;52.032;4.376;2024-02-04T01:55:47;1.35;;;0.80;;
70052;SDS011;57398;52.032;4.376;2024-02-04T01:58:36;1.20;;;0.60;;
70052;SDS011;57398;52.032;4.376;2024-02-04T02:01:26;1.20;;;0.70;;
70052;SDS011;57398;52.032;4.376;2024-02-04T02:04:15;1.10;;;0.60;;
70052;SDS011;57398;52.032;4.376;2024-02-04T02:07:03;1.25;;;0.70;;
70052;SDS011;57398;52.032;4.376;2024-02-04T02:09:54;1.30;;;0.80;;
70052;SDS011;57398;52.032;4.376;2024-02-04T02:12:43;1.30;;;0.80;;
70052;SDS011;57398;52.032;4.376;2024-02-04T02:15:36;1.20;;;0.63;;
70052;SDS011;57398;52.032;4.376;2024-02-04T02:18:34;1.40;;;0.90;;
70052;SDS011;57398;52.032;4.376;2024-02-04T02:21:28;1.40;;;0.90;;
70052;SDS011;57398;52.032;4.376;2024-02-04T02:24:35;1.33;;;0.82;;
70052;SDS011;57398;52.032;4.376;2024-02-04T02:27:23;1.40;;;0.90;;
70052;SDS011;57398;52.032;4.376;2024-02-04T02:30:11;1.30;;;0.75;;
70052;SDS011;57398;52.032;4.376;2024-02-04T02:33:00;1.40;;;0.90;;
70052;SDS011;57398;52.032;4.376;2024-02-04T02:35:49;1.30;;;0.80;;
70052;SDS011;57398;52.032;4.376;2024-02-04T02:38:46;1.38;;;0.88;;
70052;SDS011;57398;52.032;4.376;2024-02-04T02:41:41;1.30;;;0.77;;
70052;SDS011;57398;52.032;4.376;2024-02-04T02:44:30;1.27;;;0.77;;
70052;SDS011;57398;52.032;4.376;2024-02-04T02:47:20;0.80;;;0.27;;
70052;SDS011;57398;52.032;4.376;2024-02-04T02:50:10;0.90;;;0.38;;
70052;SDS011;57398;52.032;4.376;2024-02-04T02:52:58;1.00;;;0.40;;
70052;SDS011;57398;52.032;4.376;2024-02-04T02:55:46;0.93;;;0.38;;
70052;SDS011;57398;52.032;4.376;2024-02-04T02:58:36;1.10;;;0.55;;
70052;SDS011;57398;52.032;4.376;2024-02-04T03:01:24;0.90;;;0.33;;
70052;SDS011;57398;52.032;4.376;2024-02-04T03:04:13;0.90;;;0.32;;
70052;SDS011;57398;52.032;4.376;2024-02-04T03:07:01;0.90;;;0.30;;
70052;SDS011;57398;52.032;4.376;2024-02-04T03:09:49;0.70;;;0.20;;
70052;SDS011;57398;52.032;4.376;2024-02-04T03:12:37;0.90;;;0.40;;
70052;SDS011;57398;52.032;4.376;2024-02-04T03:15:26;0.90;;;0.30;;
70052;SDS011;57398;52.032;4.376;2024-02-04T03:18:15;0.90;;;0.30;;
70052;SDS011;57398;52.032;4.376;2024-02-04T03:21:03;0.95;;;0.40;;
70052;SDS011;57398;52.032;4.376;2024-02-04T03:23:51;1.00;;;0.40;;
70052;SDS011;57398;52.032;4.376;2024-02-04T03:26:39;1.00;;;0.45;;
70052;SDS011;57398;52.032;4.376;2024-02-04T03:29:27;1.23;;;0.70;;
70052;SDS011;57398;52.032;4.376;2024-02-04T03:32:16;1.15;;;0.60;;
70052;SDS011;57398;52.032;4.376;2024-02-04T03:35:05;1.30;;;0.77;;
70052;SDS011;57398;52.032;4.376;2024-02-04T03:37:53;1.30;;;0.80;;
70052;SDS011;57398;52.032;4.376;2024-02-04T03:40:41;1.20;;;0.70;;
70052;SDS011;57398;52.032;4.376;2024-02-04T03:43:29;1.07;;;0.50;;
70052;SDS011;57398;52.032;4.376;2024-02-04T03:46:18;1.00;;;0.50;;
70052;SDS011;57398;52.032;4.376;2024-02-04T03:49:07;1.10;;;0.50;;
70052;SDS011;57398;52.032;4.376;2024-02-04T03:51:56;1.00;;;0.40;;
70052;SDS011;57398;52.032;4.376;2024-02-04T03:54:44;1.00;;;0.50;;
70052;SDS011;57398;52.032;4.376;2024-02-04T03:57:32;1.00;;;0.50;;
70052;SDS011;57398;52.032;4.376;2024-02-04T04:00:20;0.75;;;0.20;;
70052;SDS011;57398;52.032;4.376;2024-02-04T04:03:09;0.80;;;0.20;;
70052;SDS011;57398;52.032;4.376;2024-02-04T04:05:58;1.00;;;0.40;;
70052;SDS011;57398;52.032;4.376;2024-02-04T04:08:47;1.08;;;0.52;;
70052;SDS011;57398;52.032;4.376;2024-02-04T04:11:35;0.80;;;0.30;;
70052;SDS011;57398;52.032;4.376;2024-02-04T04:14:23;1.00;;;0.43;;
70052;SDS011;57398;52.032;4.376;2024-02-04T04:17:11;1.10;;;0.50;;
70052;SDS011;57398;52.032;4.376;2024-02-04T04:20:00;0.90;;;0.40;;
70052;SDS011;57398;52.032;4.376;2024-02-04T04:22:49;1.00;;;0.40;;
70052;SDS011;57398;52.032;4.376;2024-02-04T04:25:37;1.30;;;0.80;;
70052;SDS011;57398;52.032;4.376;2024-02-04T04:28:26;1.13;;;0.57;;
70052;SDS011;57398;52.032;4.376;2024-02-04T04:31:14;1.30;;;0.80;;
70052;SDS011;57398;52.032;4.376;2024-02-04T04:34:02;1.15;;;0.60;;
70052;SDS011;57398;52.032;4.376;2024-02-04T04:36:51;1.20;;;0.70;;
70052;SDS011;57398;52.032;4.376;2024-02-04T04:39:40;1.30;;;0.80;;
70052;SDS011;57398;52.032;4.376;2024-02-04T04:42:29;1.40;;;0.90;;
70052;SDS011;57398;52.032;4.376;2024-02-04T04:45:17;1.40;;;0.90;;
70052;SDS011;57398;52.032;4.376;2024-02-04T04:48:06;1.40;;;0.90;;
70052;SDS011;57398;52.032;4.376;2024-02-04T04:50:55;1.30;;;0.75;;
70052;SDS011;57398;52.032;4.376;2024-02-04T04:53:43;1.20;;;0.67;;
70052;SDS011;57398;52.032;4.376;2024-02-04T04:56:38;1.20;;;0.70;;
70052;SDS011;57398;52.032;4.376;2024-02-04T04:59:29;1.20;;;0.60;;
70052;SDS011;57398;52.032;4.376;2024-02-04T05:02:17;1.40;;;0.80;;
70052;SDS011;57398;52.032;4.376;2024-02-04T05:05:05;1.20;;;0.63;;
70052;SDS011;57398;52.032;4.376;2024-02-04T05:07:53;1.20;;;0.63;;
70052;SDS011;57398;52.032;4.376;2024-02-04T05:10:42;1.20;;;0.70;;
70052;SDS011;57398;52.032;4.376;2024-02-04T05:13:31;1.30;;;0.80;;
70052;SDS011;57398;52.032;4.376;2024-02-04T05:16:19;1.40;;;0.90;;
70052;SDS011;57398;52.032;4.376;2024-02-04T05:19:07;1.30;;;0.80;;
70052;SDS011;57398;52.032;4.376;2024-02-04T05:21:56;1.37;;;0.87;;
70052;SDS011;57398;52.032;4.376;2024-02-04T05:24:44;1.30;;;0.80;;
70052;SDS011;57398;52.032;4.376;2024-02-04T05:27:32;1.30;;;0.70;;
70052;SDS011;57398;52.032;4.376;2024-02-04T05:30:22;1.38;;;0.80;;
70052;SDS011;57398;52.032;4.376;2024-02-04T05:33:13;1.25;;;0.70;;
70052;SDS011;57398;52.032;4.376;2024-02-04T05:36:01;1.40;;;0.90;;
70052;SDS011;57398;52.032;4.376;2024-02-04T05:38:50;1.10;;;0.55;;
70052;SDS011;57398;52.032;4.376;2024-02-04T05:41:38;1.20;;;0.60;;
70052;SDS011;57398;52.032;4.376;2024-02-04T05:44:26;1.15;;;0.60;;
70052;SDS011;57398;52.032;4.376;2024-02-04T05:47:16;1.23;;;0.70;;
70052;SDS011;57398;52.032;4.376;2024-02-04T05:50:05;1.00;;;0.50;;
70052;SDS011;57398;52.032;4.376;2024-02-04T05:52:54;1.20;;;0.65;;
70052;SDS011;57398;52.032;4.376;2024-02-04T05:55:42;1.20;;;0.70;;
70052;SDS011;57398;52.032;4.376;2024-02-04T05:58:31;1.30;;;0.75;;
70052;SDS011;57398;52.032;4.376;2024-02-04T06:01:19;1.10;;;0.52;;
70052;SDS011;57398;52.032;4.376;2024-02-04T06:04:08;1.30;;;0.80;;
70052;SDS011;57398;52.032;4.376;2024-02-04T06:06:57;1.20;;;0.68;;
70052;SDS011;57398;52.032;4.376;2024-02-04T06:09:45;1.38;;;0.80;;
70052;SDS011;57398;52.032;4.376;2024-02-04T06:12:33;1.30;;;0.80;;
70052;SDS011;57398;52.032;4.376;2024-02-04T06:15:21;1.20;;;0.70;;
70052;SDS011;57398;52.032;4.376;2024-02-04T06:18:10;1.40;;;0.90;;
70052;SDS011;57398;52.032;4.376;2024-02-04T06:20:59;1.23;;;0.70;;
70052;SDS011;57398;52.032;4.376;2024-02-04T06:23:47;1.30;;;0.80;;
70052;SDS011;57398;52.032;4.376;2024-02-04T06:26:37;1.40;;;0.85;;
70052;SDS011;57398;52.032;4.376;2024-02-04T06:29:25;1.30;;;0.73;;
70052;SDS011;57398;52.032;4.376;2024-02-04T06:32:13;1.10;;;0.50;;
70052;SDS011;57398;52.032;4.376;2024-02-04T06:35:02;1.30;;;0.80;;
70052;SDS011;57398;52.032;4.376;2024-02-04T06:37:51;1.25;;;0.70;;
70052;SDS011;57398;52.032;4.376;2024-02-04T06:40:40;1.15;;;0.60;;
70052;SDS011;57398;52.032;4.376;2024-02-04T06:43:28;1.33;;;0.82;;
70052;SDS011;57398;52.032;4.376;2024-02-04T06:46:24;1.37;;;0.87;;
70052;SDS011;57398;52.032;4.376;2024-02-04T06:49:13;1.10;;;0.60;;
70052;SDS011;57398;52.032;4.376;2024-02-04T06:52:05;1.20;;;0.60;;
70052;SDS011;57398;52.032;4.376;2024-02-04T06:54:54;1.20;;;0.68;;
70052;SDS011;57398;52.032;4.376;2024-02-04T06:57:42;1.38;;;0.80;;
70052;SDS011;57398;52.032;4.376;2024-02-04T07:00:30;1.30;;;0.80;;
70052;SDS011;57398;52.032;4.376;2024-02-04T07:03:19;1.13;;;0.60;;
70052;SDS011;57398;52.032;4.376;2024-02-04T07:06:07;1.30;;;0.80;;
70052;SDS011;57398;52.032;4.376;2024-02-04T07:08:55;1.30;;;0.80;;
70052;SDS011;57398;52.032;4.376;2024-02-04T07:11:45;1.50;;;1.00;;
70052;SDS011;57398;52.032;4.376;2024-02-04T07:14:33;1.40;;;0.90;;
70052;SDS011;57398;52.032;4.376;2024-02-04T07:17:21;1.50;;;1.00;;
70052;SDS011;57398;52.032;4.376;2024-02-04T07:20:09;1.40;;;0.90;;
70052;SDS011;57398;52.032;4.376;2024-02-04T07:22:58;1.50;;;1.00;;
70052;SDS011;57398;52.032;4.376;2024-02-04T07:25:46;1.50;;;1.00;;
70052;SDS011;57398;52.032;4.376;2024-02-04T07:28:36;1.57;;;1.03;;
70052;SDS011;57398;52.032;4.376;2024-02-04T07:31:24;1.40;;;0.90;;
70052;SDS011;57398;52.032;4.376;2024-02-04T07:34:12;1.42;;;0.98;;
70052;SDS011;57398;52.032;4.376;2024-02-04T07:37:01;1.42;;;0.95;;
70052;SDS011;57398;52.032;4.376;2024-02-04T07:39:49;1.40;;;0.90;;
70052;SDS011;57398;52.032;4.376;2024-02-04T07:42:38;1.50;;;1.00;;
70052;SDS011;57398;52.032;4.376;2024-02-04T07:45:27;1.40;;;0.90;;
70052;SDS011;57398;52.032;4.376;2024-02-04T07:48:15;1.10;;;0.55;;
70052;SDS011;57398;52.032;4.376;2024-02-04T07:51:04;1.20;;;0.68;;
70052;SDS011;57398;52.032;4.376;2024-02-04T07:53:52;1.10;;;0.60;;
70052;SDS011;57398;52.032;4.376;2024-02-04T07:56:40;1.00;;;0.43;;
70052;SDS011;57398;52.032;4.376;2024-02-04T07:59:28;1.00;;;0.50;;
70052;SDS011;57398;52.032;4.376;2024-02-04T08:02:18;1.50;;;1.00;;
70052;SDS011;57398;52.032;4.376;2024-02-04T08:05:06;1.40;;;0.80;;
70052;SDS011;57398;52.032;4.376;2024-02-04T08:07:55;1.45;;;0.95;;
70052;SDS011;57398;52.032;4.376;2024-02-04T08:10:43;1.40;;;0.90;;
70052;SDS011;57398;52.032;4.376;2024-02-04T08:13:31;1.20;;;0.60;;
70052;SDS011;57398;52.032;4.376;2024-02-04T08:16:19;1.30;;;0.80;;
70052;SDS011;57398;52.032;4.376;2024-02-04T08:19:09;1.40;;;0.93;;
70052;SDS011;57398;52.032;4.376;2024-02-04T08:21:57;1.30;;;0.80;;
70052;SDS011;57398;52.032;4.376;2024-02-04T08:24:47;1.40;;;0.90;;
70052;SDS011;57398;52.032;4.376;2024-02-04T08:27:35;1.27;;;0.70;;
70052;SDS011;57398;52.032;4.376;2024-02-04T08:30:23;1.30;;;0.80;;
70052;SDS011;57398;52.032;4.376;2024-02-04T08:33:12;1.30;;;0.80;;
70052;SDS011;57398;52.032;4.376;2024-02-04T08:36:01;1.40;;;0.80;;
70052;SDS011;57398;52.032;4.376;2024-02-04T08:38:51;1.30;;;0.70;;
70052;SDS011;57398;52.032;4.376;2024-02-04T08:41:40;1.40;;;0.90;;
70052;SDS011;57398;52.032;4.376;2024-02-04T08:44:28;1.40;;;0.90;;
70052;SDS011;57398;52.032;4.376;2024-02-04T08:47:24;1.15;;;0.60;;
70052;SDS011;57398;52.032;4.376;2024-02-04T08:50:12;1.30;;;0.70;;
70052;SDS011;57398;52.032;4.376;2024-02-04T08:53:03;1.40;;;0.80;;
70052;SDS011;57398;52.032;4.376;2024-02-04T08:55:51;1.30;;;0.80;;
70052;SDS011;57398;52.032;4.376;2024-02-04T08:58:39;1.30;;;0.77;;
70052;SDS011;57398;52.032;4.376;2024-02-04T09:01:27;1.30;;;0.80;;
70052;SDS011;57398;52.032;4.376;2024-02-04T09:04:15;1.20;;;0.60;;
70052;SDS011;57398;52.032;4.376;2024-02-04T09:07:04;1.30;;;0.80;;
70052;SDS011;57398;52.032;4.376;2024-02-04T09:09:54;1.25;;;0.70;;
70052;SDS011;57398;52.032;4.376;2024-02-04T09:12:42;1.40;;;0.80;;
70052;SDS011;57398;52.032;4.376;2024-02-04T09:15:30;1.20;;;0.70;;
70052;SDS011;57398;52.032;4.376;2024-02-04T09:18:19;1.08;;;0.50;;
70052;SDS011;57398;52.032;4.376;2024-02-04T09:21:07;1.17;;;0.60;;
70052;SDS011;57398;52.032;4.376;2024-02-04T09:23:55;1.25;;;0.70;;
70052;SDS011;57398;52.032;4.376;2024-02-04T09:26:45;1.30;;;0.80;;
70052;SDS011;57398;52.032;4.376;2024-02-04T09:29:34;1.40;;;0.90;;
70052;SDS011;57398;52.032;4.376;2024-02-04T09:32:22;1.27;;;0.70;;
70052;SDS011;57398;52.032;4.376;2024-02-04T09:35:10;1.10;;;0.50;;
70052;SDS011;57398;52.032;4.376;2024-02-04T09:37:59;1.35;;;0.80;;
70052;SDS011;57398;52.032;4.376;2024-02-04T09:40:47;1.30;;;0.73;;
70052;SDS011;57398;52.032;4.376;2024-02-04T09:43:37;1.35;;;0.80;;
70052;SDS011;57398;52.032;4.376;2024-02-04T09:46:26;1.40;;;0.90;;
70052;SDS011;57398;52.032;4.376;2024-02-04T09:49:15;1.40;;;0.90;;
70052;SDS011;57398;52.032;4.376;2024-02-04T09:52:05;1.40;;;0.90;;
70052;SDS011;57398;52.032;4.376;2024-02-04T09:54:57;1.30;;;0.73;;
70052;SDS011;57398;52.032;4.376;2024-02-04T09:57:48;1.27;;;0.70;;
70052;SDS011;57398;52.032;4.376;2024-02-04T10:00:38;1.40;;;0.90;;
70052;SDS011;57398;52.032;4.376;2024-02-04T10:03:27;1.33;;;0.80;;
70052;SDS011;57398;52.032;4.376;2024-02-04T10:06:16;1.30;;;0.80;;
70052;SDS011;57398;52.032;4.376;2024-02-04T10:09:04;1.40;;;0.82;;
70052;SDS011;57398;52.032;4.376;2024-02-04T10:11:53;1.35;;;0.80;;
70052;SDS011;57398;52.032;4.376;2024-02-04T10:14:41;1.30;;;0.80;;
70052;SDS011;57398;52.032;4.376;2024-02-04T10:17:31;1.30;;;0.80;;
70052;SDS011;57398;52.032;4.376;2024-02-04T10:20:19;1.20;;;0.68;;
70052;SDS011;57398;52.032;4.376;2024-02-04T10:23:08;1.40;;;0.90;;
70052;SDS011;57398;52.032;4.376;2024-02-04T10:25:59;1.40;;;0.90;;
70052;SDS011;57398;52.032;4.376;2024-02-04T10:28:51;1.42;;;0.98;;
70052;SDS011;57398;52.032;4.376;2024-02-04T10:31:40;1.33;;;0.83;;
70052;SDS011;57398;52.032;4.376;2024-02-04T10:34:29;1.40;;;0.90;;
70052;SDS011;57398;52.032;4.376;2024-02-04T10:37:17;1.40;;;0.90;;
70052;SDS011;57398;52.032;4.376;2024-02-04T10:40:06;1.50;;;0.98;;
70052;SDS011;57398;52.032;4.376;2024-02-04T10:42:57;1.30;;;0.77;;
70052;SDS011;57398;52.032;4.376;2024-02-04T10:45:52;1.50;;;1.00;;
70052;SDS011;57398;52.032;4.376;2024-02-04T10:48:45;1.40;;;0.88;;
70052;SDS011;57398;52.032;4.376;2024-02-04T10:51:41;1.50;;;0.95;;
70052;SDS011;57398;52.032;4.376;2024-02-04T10:54:29;1.40;;;0.90;;
70052;SDS011;57398;52.032;4.376;2024-02-04T10:57:21;1.50;;;1.00;;
70052;SDS011;57398;52.032;4.376;2024-02-04T11:00:10;1.40;;;0.93;;
70052;SDS011;57398;52.032;4.376;2024-02-04T11:02:59;1.50;;;1.02;;
70052;SDS011;57398;52.032;4.376;2024-02-04T11:05:49;1.50;;;0.93;;
70052;SDS011;57398;52.032;4.376;2024-02-04T11:08:40;1.50;;;1.00;;
70052;SDS011;57398;52.032;4.376;2024-02-04T11:11:29;1.40;;;0.90;;
70052;SDS011;57398;52.032;4.376;2024-02-04T11:14:18;1.40;;;0.87;;
70052;SDS011;57398;52.032;4.376;2024-02-04T11:17:17;1.40;;;0.90;;
70052;SDS011;57398;52.032;4.376;2024-02-04T11:20:29;1.30;;;0.80;;
70052;SDS011;57398;52.032;4.376;2024-02-04T11:23:42;1.30;;;0.80;;
70052;SDS011;57398;52.032;4.376;2024-02-04T11:26:40;1.30;;;0.80;;
70052;SDS011;57398;52.032;4.376;2024-02-04T11:29:29;1.40;;;0.80;;
70052;SDS011;57398;52.032;4.376;2024-02-04T11:32:18;1.30;;;0.80;;
70052;SDS011;57398;52.032;4.376;2024-02-04T11:35:07;1.40;;;0.82;;
70052;SDS011;57398;52.032;4.376;2024-02-04T11:37:58;1.30;;;0.80;;
70052;SDS011;57398;52.032;4.376;2024-02-04T11:40:48;1.40;;;0.90;;
70052;SDS011;57398;52.032;4.376;2024-02-04T11:43:39;1.30;;;0.80;;
70052;SDS011;57398;52.032;4.376;2024-02-04T11:46:27;1.30;;;0.80;;
70052;SDS011;57398;52.032;4.376;2024-02-04T11:49:20;1.50;;;1.00;;
70052;SDS011;57398;52.032;4.376;2024-02-04T11:52:18;1.42;;;0.98;;
70052;SDS011;57398;52.032;4.376;2024-02-04T11:55:12;1.40;;;0.90;;
70052;SDS011;57398;52.032;4.376;2024-02-04T11:58:05;1.50;;;1.00;;
70052;SDS011;57398;52.032;4.376;2024-02-04T12:00:54;1.38;;;0.85;;
70052;SDS011;57398;52.032;4.376;2024-02-04T12:03:45;1.40;;;0.90;;
70052;SDS011;57398;52.032;4.376;2024-02-04T12:06:33;1.40;;;0.90;;
70052;SDS011;57398;52.032;4.376;2024-02-04T12:09:21;1.40;;;0.90;;
70052;SDS011;57398;52.032;4.376;2024-02-04T12:12:09;1.40;;;0.87;;
70052;SDS011;57398;52.032;4.376;2024-02-04T12:14:59;1.30;;;0.80;;
70052;SDS011;57398;52.032;4.376;2024-02-04T12:17:51;1.40;;;0.80;;
70052;SDS011;57398;52.032;4.376;2024-02-04T12:20:39;1.50;;;0.90;;
70052;SDS011;57398;52.032;4.376;2024-02-04T12:23:28;1.30;;;0.70;;
70052;SDS011;57398;52.032;4.376;2024-02-04T12:26:19;1.30;;;0.80;;
70052;SDS011;57398;52.032;4.376;2024-02-04T12:29:07;1.20;;;0.60;;
70052;SDS011;57398;52.032;4.376;2024-02-04T12:32:00;1.30;;;0.70;;
70052;SDS011;57398;52.032;4.376;2024-02-04T12:34:49;1.10;;;0.50;;
70052;SDS011;57398;52.032;4.376;2024-02-04T12:37:49;1.40;;;0.80;;
70052;SDS011;57398;52.032;4.376;2024-02-04T12:40:37;1.30;;;0.73;;
70052;SDS011;57398;52.032;4.376;2024-02-04T12:43:25;1.00;;;0.50;;
70052;SDS011;57398;52.032;4.376;2024-02-04T12:46:13;1.27;;;0.70;;
70052;SDS011;57398;52.032;4.376;2024-02-04T12:49:03;1.27;;;0.70;;
70052;SDS011;57398;52.032;4.376;2024-02-04T12:51:52;1.30;;;0.80;;
70052;SDS011;57398;52.032;4.376;2024-02-04T12:54:52;1.33;;;0.83;;
70052;SDS011;57398;52.032;4.376;2024-02-04T12:57:41;1.50;;;1.00;;
70052;SDS011;57398;52.032;4.376;2024-02-04T13:00:30;1.35;;;0.80;;
70052;SDS011;57398;52.032;4.376;2024-02-04T13:03:18;1.35;;;0.82;;
70052;SDS011;57398;52.032;4.376;2024-02-04T13:06:09;1.40;;;0.90;;
70052;SDS011;57398;52.032;4.376;2024-02-04T13:08:57;1.33;;;0.80;;
70052;SDS011;57398;52.032;4.376;2024-02-04T13:11:47;1.25;;;0.70;;
70052;SDS011;57398;52.032;4.376;2024-02-04T13:14:35;1.20;;;0.70;;
70052;SDS011;57398;52.032;4.376;2024-02-04T13:17:23;1.40;;;0.90;;
70052;SDS011;57398;52.032;4.376;2024-02-04T13:20:12;1.20;;;0.70;;
70052;SDS011;57398;52.032;4.376;2024-02-04T13:23:01;1.30;;;0.80;;
70052;SDS011;57398;52.032;4.376;2024-02-04T13:25:52;1.30;;;0.80;;
70052;SDS011;57398;52.032;4.376;2024-02-04T13:28:40;1.40;;;0.88;;
70052;SDS011;57398;52.032;4.376;2024-02-04T13:31:29;1.30;;;0.80;;
70052;SDS011;57398;52.032;4.376;2024-02-04T13:34:17;1.30;;;0.80;;
70052;SDS011;57398;52.032;4.376;2024-02-04T13:37:07;1.30;;;0.70;;
70052;SDS011;57398;52.032;4.376;2024-02-04T13:39:57;1.33;;;0.85;;
70052;SDS011;57398;52.032;4.376;2024-02-04T13:42:46;1.20;;;0.70;;
70052;SDS011;57398;52.032;4.376;2024-02-04T13:45:35;1.30;;;0.70;;
70052;SDS011;57398;52.032;4.376;2024-02-04T13:48:23;1.30;;;0.77;;
70052;SDS011;57398;52.032;4.376;2024-02-04T13:51:12;1.20;;;0.67;;
70052;SDS011;57398;52.032;4.376;2024-02-04T13:54:03;1.20;;;0.70;;
70052;SDS011;57398;52.032;4.376;2024-02-04T13:56:53;1.40;;;0.80;;
70052;SDS011;57398;52.032;4.376;2024-02-04T13:59:41;1.20;;;0.63;;
70052;SDS011;57398;52.032;4.376;2024-02-04T14:02:29;1.40;;;0.90;;
70052;SDS011;57398;52.032;4.376;2024-02-04T14:05:18;1.40;;;0.80;;
70052;SDS011;57398;52.032;4.376;2024-02-04T14:08:07;1.10;;;0.50;;
70052;SDS011;57398;52.032;4.376;2024-02-04T14:10:56;1.40;;;0.90;;
70052;SDS011;57398;52.032;4.376;2024-02-04T14:13:45;1.30;;;0.80;;
70052;SDS011;57398;52.032;4.376;2024-02-04T14:16:34;1.40;;;0.90;;
70052;SDS011;57398;52.032;4.376;2024-02-04T14:19:22;1.30;;;0.70;;
70052;SDS011;57398;52.032;4.376;2024-02-04T14:22:10;1.40;;;0.88;;
70052;SDS011;57398;52.032;4.376;2024-02-04T14:24:59;1.20;;;0.68;;
70052;SDS011;57398;52.032;4.376;2024-02-04T14:27:47;1.38;;;0.80;;
70052;SDS011;57398;52.032;4.376;2024-02-04T14:30:37;1.20;;;0.70;;
70052;SDS011;57398;52.032;4.376;2024-02-04T14:33:25;1.10;;;0.53;;
70052;SDS011;57398;52.032;4.376;2024-02-04T14:36:14;1.30;;;0.80;;
70052;SDS011;57398;52.032;4.376;2024-02-04T14:39:02;1.20;;;0.70;;
70052;SDS011;57398;52.032;4.376;2024-02-04T14:41:52;1.35;;;0.82;;
70052;SDS011;57398;52.032;4.376;2024-02-04T14:44:41;1.30;;;0.85;;
70052;SDS011;57398;52.032;4.376;2024-02-04T14:47:31;1.20;;;0.70;;
70052;SDS011;57398;52.032;4.376;2024-02-04T14:50:19;1.25;;;0.70;;
70052;SDS011;57398;52.032;4.376;2024-02-04T14:53:07;1.35;;;0.80;;
70052;SDS011;57398;52.032;4.376;2024-02-04T14:55:56;1.30;;;0.80;;
70052;SDS011;57398;52.032;4.376;2024-02-04T14:58:44;1.10;;;0.60;;
70052;SDS011;57398;52.032;4.376;2024-02-04T15:01:32;1.20;;;0.70;;
70052;SDS011;57398;52.032;4.376;2024-02-04T15:04:23;1.20;;;0.68;;
70052;SDS011;57398;52.032;4.376;2024-02-04T15:07:12;1.20;;;0.70;;
70052;SDS011;57398;52.032;4.376;2024-02-04T15:10:07;1.30;;;0.80;;
70052;SDS011;57398;52.032;4.376;2024-02-04T15:12:57;1.20;;;0.68;;
70052;SDS011;57398;52.032;4.376;2024-02-04T15:15:46;1.20;;;0.60;;
70052;SDS011;57398;52.032;4.376;2024-02-04T15:18:35;1.20;;;0.70;;
70052;SDS011;57398;52.032;4.376;2024-02-04T15:21:25;1.40;;;0.80;;
70052;SDS011;57398;52.032;4.376;2024-02-04T15:24:14;1.20;;;0.70;;
70052;SDS011;57398;52.032;4.376;2024-02-04T15:27:03;1.20;;;0.60;;
70052;SDS011;57398;52.032;4.376;2024-02-04T15:29:52;1.30;;;0.70;;
70052;SDS011;57398;52.032;4.376;2024-02-04T15:32:44;1.30;;;0.80;;
70052;SDS011;57398;52.032;4.376;2024-02-04T15:35:36;1.38;;;0.88;;
70052;SDS011;57398;52.032;4.376;2024-02-04T15:38:25;1.30;;;0.80;;
70052;SDS011;57398;52.032;4.376;2024-02-04T15:41:15;1.20;;;0.70;;
70052;SDS011;57398;52.032;4.376;2024-02-04T15:44:03;1.10;;;0.60;;
70052;SDS011;57398;52.032;4.376;2024-02-04T15:46:51;1.30;;;0.80;;
70052;SDS011;57398;52.032;4.376;2024-02-04T15:49:41;1.30;;;0.80;;
70052;SDS011;57398;52.032;4.376;2024-02-04T15:52:30;1.20;;;0.60;;
70052;SDS011;57398;52.032;4.376;2024-02-04T15:55:21;1.30;;;0.70;;
70052;SDS011;57398;52.032;4.376;2024-02-04T15:58:10;1.30;;;0.80;;
70052;SDS011;57398;52.032;4.376;2024-02-04T16:01:02;1.25;;;0.70;;
70052;SDS011;57398;52.032;4.376;2024-02-04T16:03:58;1.40;;;0.80;;
70052;SDS011;57398;52.032;4.376;2024-02-04T16:06:47;1.40;;;0.90;;
70052;SDS011;57398;52.032;4.376;2024-02-04T16:09:37;1.30;;;0.70;;
70052;SDS011;57398;52.032;4.376;2024-02-04T16:12:29;1.20;;;0.70;;
70052;SDS011;57398;52.032;4.376;2024-02-04T16:15:22;1.08;;;0.50;;
70052;SDS011;57398;52.032;4.376;2024-02-04T16:18:17;1.30;;;0.75;;
70052;SDS011;57398;52.032;4.376;2024-02-04T16:21:06;1.20;;;0.63;;
70052;SDS011;57398;52.032;4.376;2024-02-04T16:23:55;1.20;;;0.70;;
70052;SDS011;57398;52.032;4.376;2024-02-04T16:26:43;1.10;;;0.60;;
70052;SDS011;57398;52.032;4.376;2024-02-04T16:29:36;1.20;;;0.60;;
70052;SDS011;57398;52.032;4.376;2024-02-04T16:32:29;1.10;;;0.60;;
70052;SDS011;57398;52.032;4.376;2024-02-04T16:35:27;1.30;;;0.80;;
70052;SDS011;57398;52.032;4.376;2024-02-04T16:38:20;1.30;;;0.77;;
70052;SDS011;57398;52.032;4.376;2024-02-04T16:41:21;1.30;;;0.80;;
70052;SDS011;57398;52.032;4.376;2024-02-04T16:44:15;1.40;;;0.85;;
70052;SDS011;57398;52.032;4.376;2024-02-04T16:47:05;1.30;;;0.80;;
70052;SDS011;57398;52.032;4.376;2024-02-04T16:49:53;1.20;;;0.60;;
70052;SDS011;57398;52.032;4.376;2024-02-04T16:52:42;1.15;;;0.60;;
70052;SDS011;57398;52.032;4.376;2024-02-04T16:55:34;1.30;;;0.70;;
70052;SDS011;57398;52.032;4.376;2024-02-04T16:58:23;1.05;;;0.50;;
70052;SDS011;57398;52.032;4.376;2024-02-04T17:01:11;1.30;;;0.75;;